Time;durP1;ratioP1;P1;durP2;ratioP2;P2;SDS_P1;SDS_P2;PMS_P1;PMS_P2;Temp;Humidity;BMP_temperature;BMP_pressure;BME280_temperature;BME280_humidity;BME280_pressure;Samples;Min_cycle;Max_cycle;Signal;HPM_P1;HPM_P2
2022/04/27 00:00:02;;;;;;;15.80;3.17;;;8.60;99.90;;;;;;5051748;28;20045;-62
2022/04/27 00:02:39;;;;;;;6.43;2.00;;;8.50;99.90;;;;;;5051566;28;20045;-60
2022/04/27 00:05:07;;;;;;;7.30;2.10;;;8.50;99.90;;;;;;5050653;28;20552;-59
2022/04/27 00:07:35;;;;;;;5.13;2.35;;;8.40;99.90;;;;;;5050717;28;20040;-62
2022/04/27 00:10:05;;;;;;;5.45;2.00;;;8.40;99.90;;;;;;5053207;28;20047;-59
2022/04/27 00:12:37;;;;;;;5.80;1.98;;;8.30;99.90;;;;;;5066244;28;20056;-61
2022/04/27 00:15:06;;;;;;;6.30;2.17;;;8.40;99.90;;;;;;5056515;28;20045;-63
2022/04/27 00:17:35;;;;;;;4.55;1.90;;;8.20;99.90;;;;;;5050245;28;20053;-59
2022/04/27 00:20:07;;;;;;;4.43;2.17;;;8.10;99.90;;;;;;5050390;28;20045;-62
2022/04/27 00:22:36;;;;;;;5.10;2.20;;;8.00;99.90;;;;;;5062072;28;20055;-59
2022/04/27 00:25:04;;;;;;;6.90;2.20;;;7.90;99.90;;;;;;5053945;28;20208;-58
2022/04/27 00:27:32;;;;;;;4.53;2.22;;;7.90;99.90;;;;;;5062889;28;20297;-59
2022/04/27 00:30:00;;;;;;;4.30;1.98;;;7.80;99.90;;;;;;5065923;28;20052;-59
2022/04/27 00:32:28;;;;;;;7.95;2.20;;;7.70;99.90;;;;;;5064320;28;20044;-59
2022/04/27 00:34:55;;;;;;;4.70;2.28;;;7.60;99.90;;;;;;5050565;28;20037;-59
2022/04/27 00:37:23;;;;;;;3.72;2.17;;;7.60;99.90;;;;;;5058486;28;20397;-59
2022/04/27 00:39:51;;;;;;;9.35;2.40;;;7.50;99.90;;;;;;5058644;28;20389;-59
2022/04/27 00:42:21;;;;;;;7.28;2.58;;;7.50;99.90;;;;;;5051254;28;20056;-59
2022/04/27 00:44:49;;;;;;;4.72;2.60;;;7.40;99.90;;;;;;5055092;28;20037;-59
2022/04/27 00:47:18;;;;;;;7.30;2.58;;;7.40;99.90;;;;;;5049793;28;20044;-59
2022/04/27 00:49:47;;;;;;;6.78;2.47;;;7.30;99.90;;;;;;5050298;28;20045;-59
2022/04/27 00:52:16;;;;;;;5.10;2.55;;;7.20;99.90;;;;;;5063134;28;20411;-58
2022/04/27 00:54:48;;;;;;;10.38;2.78;;;7.20;99.90;;;;;;5064436;28;20509;-59
2022/04/27 00:57:16;;;;;;;6.10;2.53;;;7.10;99.90;;;;;;5049738;28;20381;-59
2022/04/27 00:59:45;;;;;;;6.60;2.33;;;7.10;99.90;;;;;;5049506;28;20048;-61
2022/04/27 01:02:13;;;;;;;5.97;2.40;;;7.00;99.90;;;;;;5062074;28;20059;-61
2022/04/27 01:04:41;;;;;;;8.65;2.75;;;6.90;99.90;;;;;;5063975;28;20055;-61
2022/04/27 01:07:11;;;;;;;3.67;2.72;;;6.90;99.90;;;;;;5067231;28;20374;-61
2022/04/27 01:09:40;;;;;;;6.28;2.15;;;6.90;99.90;;;;;;5058252;28;20506;-60
2022/04/27 01:12:08;;;;;;;6.43;2.90;;;6.80;99.90;;;;;;5052023;28;20067;-63
2022/04/27 01:14:47;;;;;;;5.80;2.40;;;6.80;99.90;;;;;;5058396;28;20064;-62
2022/04/27 01:17:17;;;;;;;5.18;2.17;;;6.70;99.90;;;;;;5049988;28;20049;-62
2022/04/27 01:19:44;;;;;;;11.60;4.18;;;6.70;99.90;;;;;;5048004;28;20049;-60
2022/04/27 01:22:12;;;;;;;5.00;2.47;;;6.60;99.90;;;;;;5061491;28;20059;-61
2022/04/27 01:24:44;;;;;;;7.38;2.63;;;6.60;99.90;;;;;;5053970;28;20045;-59
2022/04/27 01:27:31;;;;;;;9.60;2.35;;;6.60;99.90;;;;;;5063943;28;20052;-61
2022/04/27 01:29:59;;;;;;;6.65;2.70;;;6.60;99.90;;;;;;5058457;28;20048;-60
2022/04/27 01:32:27;;;;;;;11.27;2.67;;;6.60;99.90;;;;;;5052234;28;20045;-60
2022/04/27 01:34:54;;;;;;;5.75;2.72;;;6.50;99.90;;;;;;5054579;28;20049;-61
2022/04/27 01:40:22;;;;;;;11.60;2.58;;;6.50;99.90;;;;;;5044817;28;20056;-59
2022/04/27 01:42:49;;;;;;;8.40;2.60;;;6.50;99.90;;;;;;5054243;28;20052;-61
2022/04/27 01:45:17;;;;;;;4.95;3.05;;;6.50;99.90;;;;;;5049170;28;20508;-60
2022/04/27 01:47:46;;;;;;;7.25;2.78;;;6.60;99.90;;;;;;5057988;28;20044;-59
2022/04/27 01:50:14;;;;;;;7.32;2.67;;;6.60;99.90;;;;;;5038618;28;20412;-61
2022/04/27 01:55:27;;;;;;;12.75;2.72;;;6.60;99.90;;;;;;5054656;28;20037;-62
2022/04/27 01:57:55;;;;;;;6.97;2.42;;;6.50;99.90;;;;;;5059940;28;20472;-61
2022/04/27 02:00:23;;;;;;;5.03;2.67;;;6.50;99.90;;;;;;5065459;28;20064;-60
2022/04/27 02:02:50;;;;;;;6.47;2.63;;;6.50;99.90;;;;;;5067076;28;20396;-62
2022/04/27 02:05:18;;;;;;;8.52;3.30;;;6.50;99.90;;;;;;5054286;28;20071;-62
2022/04/27 02:07:46;;;;;;;9.45;2.85;;;6.50;99.90;;;;;;5054109;28;20040;-61
2022/04/27 02:10:14;;;;;;;9.50;3.13;;;6.50;99.90;;;;;;5055344;28;20062;-62
2022/04/27 02:12:43;;;;;;;9.55;3.25;;;6.50;99.90;;;;;;5060853;28;20052;-60
2022/04/27 02:15:20;;;;;;;6.90;3.15;;;6.40;99.90;;;;;;5071731;28;20048;-60
2022/04/27 02:17:50;;;;;;;12.77;3.55;;;6.40;99.90;;;;;;5069320;28;20392;-63
2022/04/27 02:20:22;;;;;;;8.53;2.80;;;6.40;99.90;;;;;;5054800;28;20041;-62
2022/04/27 02:22:51;;;;;;;6.30;2.90;;;6.30;99.90;;;;;;5054535;28;20392;-62
2022/04/27 02:25:19;;;;;;;5.90;3.20;;;6.30;99.90;;;;;;5046396;28;20037;-63
2022/04/27 02:27:47;;;;;;;6.60;3.20;;;6.30;99.90;;;;;;5054671;28;20056;-61
2022/04/27 02:30:15;;;;;;;10.23;3.50;;;6.30;99.90;;;;;;5053277;28;20045;-60
2022/04/27 02:32:45;;;;;;;10.40;3.45;;;6.30;99.90;;;;;;5055306;28;20051;-62
2022/04/27 02:35:13;;;;;;;7.50;3.10;;;6.30;99.90;;;;;;5067172;28;20044;-62
2022/04/27 02:37:41;;;;;;;10.88;3.80;;;6.30;99.90;;;;;;5049229;28;20044;-60
2022/04/27 02:40:10;;;;;;;6.97;3.88;;;6.20;99.90;;;;;;5069060;28;20033;-62
2022/04/27 02:42:38;;;;;;;9.25;3.92;;;6.20;99.90;;;;;;5064125;28;20059;-62
2022/04/27 02:45:07;;;;;;;9.35;4.00;;;6.20;99.90;;;;;;5057928;28;20484;-60
2022/04/27 02:47:35;;;;;;;10.57;4.53;;;6.20;99.90;;;;;;5061510;28;20051;-60
2022/04/27 02:52:57;;;;;;;6.47;4.00;;;6.20;99.90;;;;;;5056892;28;20519;-60
2022/04/27 02:55:28;;;;;;;12.38;4.18;;;6.10;99.90;;;;;;5062399;28;20041;-59
2022/04/27 02:57:57;;;;;;;7.13;3.83;;;6.10;99.90;;;;;;5058600;28;20056;-59
2022/04/27 03:00:25;;;;;;;8.60;3.83;;;6.00;99.90;;;;;;5067976;28;20385;-59
2022/04/27 03:02:56;;;;;;;11.18;4.57;;;5.90;99.90;;;;;;5053915;28;20500;-60
2022/04/27 03:05:24;;;;;;;11.82;4.53;;;5.90;99.90;;;;;;5054753;28;20040;-59
2022/04/27 03:07:53;;;;;;;8.60;3.78;;;5.80;99.90;;;;;;5071444;28;20040;-59
2022/04/27 03:10:23;;;;;;;13.45;4.75;;;5.70;99.90;;;;;;5069301;28;20047;-59
2022/04/27 03:12:52;;;;;;;9.50;3.83;;;5.60;99.90;;;;;;5043598;28;20053;-60
2022/04/27 03:15:19;;;;;;;13.18;4.32;;;5.50;99.90;;;;;;5053786;28;20436;-59
2022/04/27 03:18:16;;;;;;;17.40;4.47;;;5.50;99.90;;;;;;5051174;28;20044;-59
2022/04/27 03:20:35;;;;;;;11.25;4.53;;;5.40;99.90;;;;;;5052899;28;20492;-59
2022/04/27 03:23:02;;;;;;;14.05;5.72;;;5.30;99.90;;;;;;5052497;28;20045;-61
2022/04/27 03:25:31;;;;;;;20.08;6.85;;;5.20;99.90;;;;;;5058593;28;20481;-59
2022/04/27 03:28:02;;;;;;;9.82;4.72;;;5.10;99.90;;;;;;5055760;28;20040;-59
2022/04/27 03:30:29;;;;;;;14.43;5.35;;;5.10;99.90;;;;;;5053251;28;20052;-61
2022/04/27 03:33:00;;;;;;;10.68;4.55;;;5.10;99.90;;;;;;5052151;28;20053;-60
2022/04/27 03:35:29;;;;;;;10.57;4.15;;;5.10;99.90;;;;;;5056423;28;20040;-59
2022/04/27 03:37:58;;;;;;;12.75;4.32;;;5.10;99.90;;;;;;5068228;28;20056;-59
2022/04/27 03:40:27;;;;;;;8.98;4.30;;;5.00;99.90;;;;;;5052415;28;20037;-59
2022/04/27 03:42:55;;;;;;;11.45;4.05;;;5.10;99.90;;;;;;5052268;28;20053;-59
2022/04/27 03:45:23;;;;;;;9.23;3.97;;;5.10;99.90;;;;;;5059093;28;20064;-59
2022/04/27 03:47:54;;;;;;;8.23;3.90;;;5.10;99.90;;;;;;5072074;28;20547;-58
2022/04/27 03:50:22;;;;;;;15.95;4.32;;;5.10;99.90;;;;;;5057243;28;20400;-58
2022/04/27 03:52:52;;;;;;;;;;;5.10;99.90;;;;;;5052194;28;20511;-58
2022/04/27 03:55:23;;;;;;;8.77;4.32;;;5.10;99.90;;;;;;5052453;28;19921;-60
2022/04/27 03:57:52;;;;;;;9.27;4.28;;;5.10;99.90;;;;;;5069144;28;20044;-60
2022/04/27 04:00:20;;;;;;;12.27;4.85;;;5.20;99.90;;;;;;5054854;28;20040;-64
2022/04/27 04:03:03;;;;;;;13.77;5.30;;;5.20;99.90;;;;;;5052496;28;20052;-59
2022/04/27 04:05:33;;;;;;;13.27;4.60;;;5.20;99.90;;;;;;5051830;28;20048;-60
2022/04/27 04:08:01;;;;;;;9.40;4.72;;;5.20;99.90;;;;;;5052089;28;20645;-59
2022/04/27 04:10:29;;;;;;;7.68;3.80;;;5.20;99.90;;;;;;5052868;28;20032;-59
2022/04/27 04:12:57;;;;;;;14.30;4.65;;;5.30;99.90;;;;;;5053064;28;20045;-60
2022/04/27 04:15:37;;;;;;;14.82;5.40;;;5.30;99.90;;;;;;5054744;28;20412;-60
2022/04/27 04:18:26;;;;;;;11.88;4.53;;;5.30;99.90;;;;;;5035683;28;20064;-60
2022/04/27 04:21:10;;;;;;;9.40;4.95;;;5.30;99.90;;;;;;5064631;28;20037;-60
2022/04/27 04:23:56;;;;;;;12.60;4.97;;;5.30;99.90;;;;;;5053131;28;20055;-61
2022/04/27 04:29:09;;;;;;;10.32;4.57;;;5.40;99.90;;;;;;5062591;28;20037;-59
2022/04/27 04:31:37;;;;;;;14.43;4.90;;;5.40;99.90;;;;;;5054999;28;20053;-63
2022/04/27 04:34:27;;;;;;;9.15;5.00;;;5.40;99.90;;;;;;5055159;28;20052;-61
2022/04/27 04:36:55;;;;;;;11.90;4.75;;;5.40;99.90;;;;;;5070009;28;20051;-62
2022/04/27 04:39:23;;;;;;;11.32;4.90;;;5.50;99.90;;;;;;5052158;28;20049;-61
2022/04/27 04:41:51;;;;;;;13.02;4.53;;;5.40;99.90;;;;;;5051284;28;20040;-61
2022/04/27 04:44:19;;;;;;;12.20;4.85;;;5.50;99.90;;;;;;5051033;28;20044;-63
2022/04/27 04:47:10;;;;;;;8.32;4.55;;;5.40;99.90;;;;;;5056329;28;22111;-60
2022/04/27 04:49:56;;;;;;;10.82;5.03;;;5.40;99.90;;;;;;5048374;28;20056;-60
2022/04/27 04:52:39;;;;;;;9.40;4.72;;;5.40;99.90;;;;;;5048264;28;20041;-62
2022/04/27 04:55:31;;;;;;;13.75;4.82;;;5.40;99.90;;;;;;5049205;28;20044;-60
2022/04/27 04:58:28;;;;;;;12.88;4.78;;;5.40;99.90;;;;;;5052495;28;20048;-63
2022/04/27 05:01:12;;;;;;;10.25;5.05;;;5.50;99.90;;;;;;5047894;28;20041;-64
2022/04/27 05:04:05;;;;;;;10.35;5.45;;;5.40;99.90;;;;;;5045727;28;20519;-63
2022/04/27 05:06:52;;;;;;;10.32;5.10;;;5.40;99.90;;;;;;5060516;28;20037;-65
2022/04/27 05:09:39;;;;;;;9.45;4.78;;;6.10;99.90;;;;;;5050687;28;20041;-62
2022/04/27 05:12:45;;;;;;;16.35;5.70;;;5.40;99.90;;;;;;5041274;28;20057;-64
2022/04/27 05:15:16;;;;;;;11.02;5.25;;;5.30;99.90;;;;;;5043945;28;20396;-65
2022/04/27 05:18:12;;;;;;;12.80;5.65;;;5.30;99.90;;;;;;5045004;28;20056;-65
2022/04/27 05:21:09;;;;;;;23.20;5.88;;;5.30;99.90;;;;;;5051745;28;20045;-62
2022/04/27 05:23:40;;;;;;;16.85;5.47;;;5.30;99.90;;;;;;5058487;28;20037;-64
2022/04/27 05:26:43;;;;;;;13.68;5.30;;;5.40;99.90;;;;;;5046841;28;20658;-63
2022/04/27 05:32:44;;;;;;;18.02;4.80;;;5.50;99.90;;;;;;5040930;28;20052;-61
2022/04/27 05:35:39;;;;;;;9.60;5.03;;;5.50;99.90;;;;;;5055153;28;20404;-61
2022/04/27 05:38:18;;;;;;;10.75;4.90;;;5.50;99.90;;;;;;5056195;28;20057;-60
2022/04/27 05:41:18;;;;;;;12.32;4.65;;;5.60;99.90;;;;;;5049291;28;20052;-61
2022/04/27 05:44:09;;;;;;;14.20;4.80;;;5.60;99.90;;;;;;5048885;28;20057;-61
2022/04/27 05:46:56;;;;;;;;;;;5.70;99.90;;;;;;5052969;28;20048;-61
2022/04/27 05:49:30;;;;;;;17.85;5.00;;;5.80;99.90;;;;;;5056327;28;19920;-61
2022/04/27 05:52:17;;;;;;;10.85;5.00;;;5.80;99.90;;;;;;5049595;28;20059;-61
2022/04/27 05:55:09;;;;;;;10.82;5.15;;;5.80;99.90;;;;;;5062985;28;20051;-62
2022/04/27 05:57:49;;;;;;;15.00;4.90;;;5.90;99.90;;;;;;5051503;28;20044;-62
2022/04/27 06:00:55;;;;;;;13.27;6.22;;;5.90;99.90;;;;;;5050801;28;20063;-64
2022/04/27 06:03:35;;;;;;;12.35;5.95;;;6.00;99.90;;;;;;5047290;28;20048;-62
2022/04/27 06:06:08;;;;;;;14.60;5.00;;;6.00;99.90;;;;;;5045524;28;20056;-62
2022/04/27 06:08:36;;;;;;;12.55;6.00;;;6.10;99.90;;;;;;5056825;28;20048;-64
2022/04/27 06:11:08;;;;;;;15.05;5.13;;;6.10;99.90;;;;;;5054111;28;20044;-63
2022/04/27 06:13:55;;;;;;;12.65;4.43;;;6.20;99.90;;;;;;5060025;28;20380;-61
2022/04/27 06:16:34;;;;;;;9.88;3.30;;;6.30;99.90;;;;;;5068139;28;20043;-62
2022/04/27 06:19:07;;;;;;;9.43;3.67;;;6.40;99.90;;;;;;5062434;28;20053;-62
2022/04/27 06:21:35;;;;;;;11.35;3.25;;;6.40;99.90;;;;;;5060292;28;20045;-62
2022/04/27 06:24:05;;;;;;;8.57;3.43;;;6.50;99.90;;;;;;5050696;28;20041;-63
2022/04/27 06:26:36;;;;;;;8.52;3.40;;;6.60;99.90;;;;;;5049857;28;20902;-62
2022/04/27 06:29:05;;;;;;;6.88;2.72;;;6.70;99.90;;;;;;5044278;28;20049;-65
2022/04/27 06:31:32;;;;;;;8.30;2.08;;;6.80;99.90;;;;;;5045729;28;20048;-65
2022/04/27 06:34:03;;;;;;;6.50;2.63;;;6.90;99.90;;;;;;5048118;28;20056;-62
2022/04/27 06:36:32;;;;;;;7.63;2.42;;;6.90;99.90;;;;;;5052226;28;20508;-61
2022/04/27 06:39:02;;;;;;;10.75;2.95;;;7.00;99.90;;;;;;5049650;28;20040;-61
2022/04/27 06:41:32;;;;;;;9.02;2.65;;;7.10;99.90;;;;;;5051729;28;20052;-61
2022/04/27 06:44:26;;;;;;;5.95;2.33;;;7.20;99.90;;;;;;5055470;28;20074;-61
2022/04/27 06:47:13;;;;;;;3.95;2.05;;;7.30;99.90;;;;;;5052020;28;20052;-61
2022/04/27 06:49:59;;;;;;;4.57;2.22;;;7.30;99.90;;;;;;5048590;28;20041;-61
2022/04/27 06:52:46;;;;;;;8.70;2.58;;;7.40;99.90;;;;;;5048766;28;20048;-61
2022/04/27 06:55:33;;;;;;;8.00;2.72;;;7.40;99.90;;;;;;5050807;28;20053;-62
2022/04/27 06:58:19;;;;;;;6.68;2.28;;;7.40;99.90;;;;;;5054511;28;20060;-63
2022/04/27 07:00:59;;;;;;;8.88;2.85;;;7.40;99.90;;;;;;5047411;28;20045;-63
2022/04/27 07:03:31;;;;;;;4.63;1.73;;;7.50;99.90;;;;;;5053243;28;20055;-63
2022/04/27 07:06:00;;;;;;;6.88;2.30;;;7.50;99.90;;;;;;5063699;28;20052;-62
2022/04/27 07:08:29;;;;;;;8.17;3.37;;;7.60;99.90;;;;;;5064447;28;20076;-61
2022/04/27 07:10:57;;;;;;;5.53;2.60;;;7.60;99.90;;;;;;5052475;28;20390;-62
2022/04/27 07:13:25;;;;;;;9.55;2.67;;;7.70;99.90;;;;;;5053352;28;20115;-63
2022/04/27 07:15:58;;;;;;;4.28;2.28;;;7.80;99.90;;;;;;5060291;28;20037;-64
2022/04/27 07:18:26;;;;;;;5.22;2.38;;;7.90;99.90;;;;;;5064627;28;20577;-65
2022/04/27 07:20:54;;;;;;;5.97;2.30;;;8.00;99.90;;;;;;5059748;28;20063;-61
2022/04/27 07:23:21;;;;;;;9.90;2.08;;;8.10;99.90;;;;;;5055205;28;20060;-65
2022/04/27 07:25:49;;;;;;;5.35;2.35;;;8.20;99.90;;;;;;5070938;28;20055;-63
2022/04/27 07:28:17;;;;;;;4.60;2.13;;;8.20;99.90;;;;;;5056160;28;20033;-62
2022/04/27 07:30:45;;;;;;;7.28;1.88;;;8.30;99.90;;;;;;5062368;28;20049;-63
2022/04/27 07:33:12;;;;;;;6.50;1.92;;;8.40;99.90;;;;;;5053726;28;20052;-65
2022/04/27 07:35:40;;;;;;;7.28;2.22;;;8.40;99.90;;;;;;5071702;28;20051;-64
2022/04/27 07:38:08;;;;;;;6.72;2.72;;;8.50;99.90;;;;;;5070493;28;20045;-66
2022/04/27 07:40:35;;;;;;;3.53;2.35;;;8.60;99.90;;;;;;5071740;28;20388;-59
2022/04/27 07:43:03;;;;;;;9.50;2.03;;;8.60;99.90;;;;;;5070375;28;20569;-62
2022/04/27 07:45:30;;;;;;;9.13;2.65;;;8.70;99.90;;;;;;5066699;28;20045;-63
2022/04/27 07:47:58;;;;;;;6.05;1.85;;;8.90;99.90;;;;;;5059280;28;20048;-61
2022/04/27 07:50:26;;;;;;;7.03;1.55;;;8.90;99.90;;;;;;5070203;28;20044;-61
2022/04/27 07:52:56;;;;;;;6.10;2.03;;;9.00;99.90;;;;;;5071515;28;20056;-63
2022/04/27 07:55:23;;;;;;;10.98;2.00;;;9.10;99.90;;;;;;5070381;28;20396;-64
2022/04/27 07:57:51;;;;;;;6.05;1.60;;;9.10;99.90;;;;;;5071194;28;20089;-64
2022/04/27 08:00:19;;;;;;;11.15;1.58;;;9.20;99.90;;;;;;5061389;28;20059;-63
2022/04/27 08:02:47;;;;;;;3.08;1.42;;;9.20;99.90;;;;;;5051314;28;20045;-63
2022/04/27 08:05:15;;;;;;;6.78;1.77;;;9.30;99.90;;;;;;5051071;28;20045;-60
2022/04/27 08:07:44;;;;;;;9.80;2.17;;;9.40;99.90;;;;;;5055948;28;20044;-59
2022/04/27 08:10:20;;;;;;;5.80;1.80;;;9.40;99.90;;;;;;5070086;28;20041;-59
2022/04/27 08:12:49;;;;;;;6.60;2.10;;;9.40;99.90;;;;;;5070918;28;20049;-61
2022/04/27 08:15:19;;;;;;;6.95;1.90;;;9.40;99.90;;;;;;5065202;28;20049;-60
2022/04/27 08:17:55;;;;;;;8.57;2.00;;;9.50;99.90;;;;;;5057262;28;20051;-59
2022/04/27 08:23:12;;;;;;;8.48;2.15;;;9.50;99.70;;;;;;5070666;28;20516;-58
2022/04/27 08:25:44;;;;;;;5.75;1.95;;;9.60;99.90;;;;;;5070886;28;20052;-60
2022/04/27 08:28:13;;;;;;;9.93;1.80;;;9.80;99.90;;;;;;5070781;28;20044;-58
2022/04/27 08:30:42;;;;;;;5.72;1.80;;;9.80;99.40;;;;;;5065044;28;20405;-60
2022/04/27 08:33:12;;;;;;;6.15;1.85;;;10.00;98.90;;;;;;5050906;28;20056;-60
2022/04/27 08:35:39;;;;;;;11.30;2.42;;;10.00;98.70;;;;;;5049528;28;20037;-59
2022/04/27 08:38:09;;;;;;;6.65;2.10;;;10.10;98.30;;;;;;5059452;28;20074;-61
2022/04/27 08:40:40;;;;;;;4.65;1.73;;;10.10;97.80;;;;;;5070458;28;20404;-59
2022/04/27 08:43:11;;;;;;;8.25;2.05;;;10.10;97.90;;;;;;5070500;28;20055;-61
2022/04/27 08:45:41;;;;;;;3.47;2.05;;;10.20;97.70;;;;;;5060875;28;20500;-60
2022/04/27 08:48:11;;;;;;;6.50;2.50;;;10.20;97.40;;;;;;5059611;28;20502;-59
2022/04/27 08:50:39;;;;;;;7.15;2.13;;;10.30;96.60;;;;;;5070311;28;20048;-61
2022/04/27 08:53:07;;;;;;;8.50;2.20;;;10.40;96.50;;;;;;5068928;28;20045;-60
2022/04/27 08:55:40;;;;;;;5.75;1.88;;;10.40;96.50;;;;;;5070181;28;20051;-63
2022/04/27 08:58:15;;;;;;;11.93;2.15;;;10.60;96.80;;;;;;5067983;28;20652;-61
2022/04/27 09:01:03;;;;;;;8.52;2.80;;;10.70;95.90;;;;;;5062078;28;20044;-64
2022/04/27 09:03:33;;;;;;;12.27;2.35;;;10.80;94.80;;;;;;5050320;28;20053;-60
2022/04/27 09:06:02;;;;;;;;;;;10.80;94.80;;;;;;5050982;28;20040;-59
2022/04/27 09:08:37;;;;;;;9.15;1.70;;;11.00;94.80;;;;;;5062088;28;19921;-60
2022/04/27 09:11:32;;;;;;;8.50;2.17;;;11.00;94.90;;;;;;5068782;28;20049;-60
2022/04/27 09:14:02;;;;;;;8.13;2.45;;;11.10;93.70;;;;;;5068665;28;20396;-60
2022/04/27 09:22:10;;;;;;;6.97;2.22;;;11.30;93.40;;;;;;5066953;28;20396;-59
2022/04/27 09:24:47;;;;;;;;;;;11.30;92.90;;;;;;5049347;28;20055;-59
2022/04/27 09:27:21;;;;;;;3.33;2.00;;;11.30;92.60;;;;;;5069435;28;20380;-59
2022/04/27 09:29:57;;;;;;;4.63;1.80;;;11.30;92.60;;;;;;5069633;28;20055;-60
2022/04/27 09:32:26;;;;;;;9.10;2.30;;;11.30;92.60;;;;;;5049410;28;20049;-59
2022/04/27 09:34:54;;;;;;;6.70;2.35;;;11.40;92.60;;;;;;5049597;28;20053;-59
2022/04/27 09:37:24;;;;;;;6.90;2.13;;;11.40;91.50;;;;;;5051484;28;20041;-59
2022/04/27 09:40:12;;;;;;;9.27;2.10;;;11.30;91.90;;;;;;5069653;28;20300;-60
2022/04/27 09:42:46;;;;;;;7.55;2.83;;;11.40;92.30;;;;;;5069750;28;20053;-60
2022/04/27 09:45:24;;;;;;;7.15;2.08;;;11.40;92.20;;;;;;5066462;28;20048;-60
2022/04/27 09:48:01;;;;;;;7.20;2.97;;;11.50;92.00;;;;;;5048031;28;20056;-60
2022/04/27 09:50:49;;;;;;;13.32;3.28;;;11.50;91.60;;;;;;5047231;28;20052;-59
2022/04/27 09:53:19;;;;;;;3.63;2.13;;;11.50;91.30;;;;;;5044764;28;20060;-61
2022/04/27 09:55:47;;;;;;;;;;;11.50;91.80;;;;;;5048480;28;20049;-60
2022/04/27 09:58:16;;;;;;;9.27;2.30;;;11.50;91.00;;;;;;5059008;28;19943;-62
2022/04/27 10:00:48;;;;;;;12.03;2.67;;;11.50;91.20;;;;;;5063737;28;20045;-60
2022/04/27 10:03:20;;;;;;;4.97;2.75;;;11.60;91.30;;;;;;5049238;28;20481;-62
2022/04/27 10:05:48;;;;;;;7.07;2.80;;;11.60;90.60;;;;;;5048448;28;20476;-62
2022/04/27 10:08:19;;;;;;;12.52;2.95;;;11.70;90.80;;;;;;5056322;28;20052;-64
2022/04/27 10:10:47;;;;;;;9.88;2.83;;;11.70;90.10;;;;;;5065212;28;20504;-62
2022/04/27 10:13:15;;;;;;;9.88;2.95;;;11.80;90.40;;;;;;5065470;28;20068;-63
2022/04/27 10:15:45;;;;;;;6.65;2.92;;;11.80;90.00;;;;;;5052890;28;20041;-61
2022/04/27 10:18:20;;;;;;;7.65;2.90;;;11.90;90.10;;;;;;5069745;28;20483;-63
2022/04/27 10:20:49;;;;;;;6.53;2.67;;;11.90;90.00;;;;;;5069606;28;20056;-63
2022/04/27 10:23:28;;;;;;;10.65;3.10;;;11.90;90.00;;;;;;5071421;28;20049;-64
2022/04/27 10:26:11;;;;;;;11.63;3.13;;;11.90;87.80;;;;;;5069908;28;20048;-64
2022/04/27 10:28:48;;;;;;;13.05;3.17;;;12.00;87.70;;;;;;5070106;28;20289;-63
2022/04/27 10:31:42;;;;;;;6.55;3.20;;;11.90;87.80;;;;;;5064918;28;20044;-65
2022/04/27 10:34:17;;;;;;;7.43;3.10;;;12.00;87.80;;;;;;5052892;28;20056;-65
2022/04/27 10:36:47;;;;;;;6.60;3.10;;;12.00;87.50;;;;;;5052985;28;20040;-64
2022/04/27 10:39:23;;;;;;;11.95;3.50;;;12.00;87.60;;;;;;5069277;28;20610;-64
2022/04/27 10:42:02;;;;;;;10.85;2.83;;;12.10;88.00;;;;;;5072849;28;20052;-63
2022/04/27 10:44:48;;;;;;;9.63;2.70;;;12.10;88.20;;;;;;5072429;28;20048;-61
2022/04/27 10:47:18;;;;;;;6.65;2.72;;;12.30;88.10;;;;;;5070073;28;20518;-64
2022/04/27 10:49:47;;;;;;;7.50;2.40;;;12.40;87.50;;;;;;5072346;28;20049;-63
2022/04/27 10:52:15;;;;;;;4.90;2.42;;;12.50;86.30;;;;;;5071116;28;20053;-60
2022/04/27 10:54:43;;;;;;;6.97;2.53;;;12.60;85.20;;;;;;5072098;28;20071;-60
2022/04/27 10:57:18;;;;;;;11.07;2.90;;;12.60;84.60;;;;;;5072201;28;20048;-59
2022/04/27 10:59:47;;;;;;;8.25;3.20;;;12.70;84.70;;;;;;5070957;28;20104;-60
2022/04/27 11:02:32;;;;;;;8.95;3.15;;;12.70;84.40;;;;;;5067212;28;20045;-60
2022/04/27 11:05:12;;;;;;;8.50;3.22;;;12.80;83.60;;;;;;5052288;28;20420;-58
2022/04/27 11:07:48;;;;;;;7.75;2.85;;;12.80;83.90;;;;;;5056907;28;20049;-63
2022/04/27 11:10:17;;;;;;;10.48;2.92;;;12.80;83.90;;;;;;5071324;28;20373;-63
2022/04/27 11:12:48;;;;;;;6.57;2.75;;;13.00;82.70;;;;;;5070805;28;20052;-59
2022/04/27 11:15:21;;;;;;;13.68;3.00;;;13.10;83.20;;;;;;5070956;28;20380;-61
2022/04/27 11:18:01;;;;;;;9.55;3.10;;;13.30;82.20;;;;;;5055104;28;20051;-59
2022/04/27 11:20:35;;;;;;;9.70;3.45;;;13.40;82.80;;;;;;5054684;28;20507;-60
2022/04/27 11:23:07;;;;;;;8.95;3.42;;;13.60;80.40;;;;;;5049921;28;20439;-59
2022/04/27 11:25:38;;;;;;;9.40;3.20;;;13.80;79.20;;;;;;5054415;28;20040;-60
2022/04/27 11:28:07;;;;;;;9.75;2.63;;;13.90;77.70;;;;;;5060172;28;20392;-59
2022/04/27 11:30:35;;;;;;;7.03;2.73;;;14.00;76.80;;;;;;5051759;28;20044;-59
2022/04/27 11:33:02;;;;;;;10.95;3.72;;;13.90;76.50;;;;;;5056004;28;20517;-58
2022/04/27 11:35:44;;;;;;;7.03;2.72;;;13.80;76.10;;;;;;5050270;28;20401;-59
2022/04/27 11:38:20;;;;;;;11.57;3.00;;;13.70;75.20;;;;;;5057752;28;20045;-59
2022/04/27 11:40:49;;;;;;;4.63;2.47;;;13.70;76.50;;;;;;5064256;28;20052;-59
2022/04/27 11:43:24;;;;;;;12.20;2.88;;;13.90;75.80;;;;;;5056232;28;20041;-60
2022/04/27 11:45:53;;;;;;;8.45;3.03;;;14.20;75.60;;;;;;5053798;28;20044;-60
2022/04/27 11:48:22;;;;;;;12.00;2.83;;;14.50;74.10;;;;;;5057115;28;20045;-62
2022/04/27 11:50:52;;;;;;;11.20;3.00;;;14.50;73.70;;;;;;5051304;28;20049;-59
2022/04/27 11:53:19;;;;;;;10.30;2.50;;;14.50;72.80;;;;;;5059546;28;20481;-59
2022/04/27 11:55:51;;;;;;;7.30;2.75;;;14.60;72.90;;;;;;5050952;28;20083;-59
2022/04/27 11:58:26;;;;;;;10.65;2.90;;;14.90;73.20;;;;;;5066846;28;20040;-59
2022/04/27 12:00:59;;;;;;;9.85;2.97;;;15.20;70.90;;;;;;5067632;28;20052;-58
2022/04/27 12:03:28;;;;;;;8.73;2.50;;;15.50;70.50;;;;;;5051873;28;20048;-59
2022/04/27 12:05:56;;;;;;;10.57;3.20;;;15.80;71.00;;;;;;5050658;28;20055;-59
2022/04/27 12:08:26;;;;;;;3.78;2.17;;;16.10;68.90;;;;;;5061422;28;20480;-61
2022/04/27 12:10:54;;;;;;;7.38;2.20;;;16.40;66.40;;;;;;5071131;28;20052;-61
2022/04/27 12:13:23;;;;;;;7.35;2.67;;;16.60;65.50;;;;;;5070771;28;20045;-61
2022/04/27 12:15:52;;;;;;;5.00;2.05;;;16.90;65.60;;;;;;5058654;28;20044;-61
2022/04/27 12:18:27;;;;;;;11.40;2.40;;;17.20;65.40;;;;;;5056867;28;20508;-62
2022/04/27 12:20:56;;;;;;;7.38;1.90;;;17.60;64.30;;;;;;5056587;28;20507;-61
2022/04/27 12:23:30;;;;;;;5.03;2.03;;;18.00;63.40;;;;;;5063194;28;20052;-61
2022/04/27 12:25:59;;;;;;;9.85;2.55;;;17.90;60.70;;;;;;5051315;28;20053;-61
2022/04/27 12:28:34;;;;;;;9.32;2.28;;;17.70;60.90;;;;;;5060511;28;20636;-61
2022/04/27 12:31:07;;;;;;;7.65;2.10;;;17.40;61.80;;;;;;5070673;28;20496;-62
2022/04/27 12:33:44;;;;;;;7.20;2.03;;;17.20;61.30;;;;;;5068406;28;20040;-62
2022/04/27 12:39:04;;;;;;;9.00;2.30;;;16.50;61.90;;;;;;5061777;28;20045;-59
2022/04/27 12:41:33;;;;;;;10.68;2.35;;;16.20;62.50;;;;;;5063493;28;20048;-62
2022/04/27 12:44:10;;;;;;;6.15;2.30;;;16.20;65.40;;;;;;5050449;28;20041;-61
2022/04/27 12:47:10;;;;;;;7.50;2.35;;;16.10;62.50;;;;;;5050562;28;20428;-61
2022/04/27 12:49:40;;;;;;;10.35;2.90;;;15.80;62.40;;;;;;5048948;28;20045;-62
2022/04/27 12:52:18;;;;;;;9.55;2.05;;;15.80;65.70;;;;;;5062078;28;20056;-62
2022/04/27 12:54:47;;;;;;;9.98;2.30;;;16.20;65.30;;;;;;5050089;28;20040;-64
2022/04/27 12:57:15;;;;;;;5.50;2.53;;;16.70;64.10;;;;;;5051426;28;20049;-62
2022/04/27 13:00:00;;;;;;;9.90;2.63;;;16.90;62.20;;;;;;5051741;28;20033;-62
2022/04/27 13:02:28;;;;;;;9.98;2.85;;;16.90;61.60;;;;;;5064805;28;20056;-64
2022/04/27 13:04:56;;;;;;;13.75;2.83;;;16.90;62.20;;;;;;5050432;28;20057;-65
2022/04/27 13:07:24;;;;;;;10.45;3.08;;;16.80;62.60;;;;;;5051945;28;20072;-60
2022/04/27 13:12:39;;;;;;;6.68;2.70;;;16.70;62.60;;;;;;5059180;28;20045;-61
2022/04/27 13:15:07;;;;;;;7.20;2.70;;;16.50;61.70;;;;;;5050024;28;20064;-61
2022/04/27 13:17:35;;;;;;;12.65;3.45;;;16.20;61.70;;;;;;5053325;28;20040;-60
2022/04/27 13:20:04;;;;;;;8.30;2.85;;;15.90;63.60;;;;;;5051207;28;20049;-60
2022/04/27 13:22:32;;;;;;;6.17;3.10;;;16.10;63.10;;;;;;5053526;28;20052;-65
2022/04/27 13:25:00;;;;;;;8.30;2.72;;;16.20;63.10;;;;;;5048311;28;20037;-65
2022/04/27 13:27:28;;;;;;;8.77;3.05;;;16.80;63.80;;;;;;5052846;28;20049;-63
2022/04/27 13:29:56;;;;;;;7.45;2.58;;;17.40;62.10;;;;;;5059177;28;20498;-62
2022/04/27 13:32:24;;;;;;;7.97;3.03;;;17.90;61.30;;;;;;5063993;28;20530;-61
2022/04/27 13:34:52;;;;;;;7.50;3.13;;;18.20;58.80;;;;;;5036558;28;20052;-62
2022/04/27 13:37:24;;;;;;;9.82;2.90;;;18.50;59.10;;;;;;5049955;28;20053;-63
2022/04/27 13:39:57;;;;;;;10.18;3.42;;;18.80;57.30;;;;;;5048933;28;20055;-62
2022/04/27 13:42:25;;;;;;;7.13;3.03;;;19.00;56.70;;;;;;5054302;28;20067;-60
2022/04/27 13:44:54;;;;;;;8.52;3.00;;;18.90;56.20;;;;;;5063838;28;20063;-59
2022/04/27 13:47:23;;;;;;;13.00;3.38;;;18.80;57.10;;;;;;5054933;28;20037;-60